Time;durP1;ratioP1;P1;durP2;ratioP2;P2;SDS_P1;SDS_P2;PMS_P1;PMS_P2;Temp;Humidity;BMP_temperature;BMP_pressure;BME280_temperature;BME280_humidity;BME280_pressure;Samples;Min_cycle;Max_cycle;Signal;HPM_P1;HPM_P2
2023/12/14 00:02:49;;;;;;;91.70;55.80;;;;;;;8.12;100.00;99021.38;178913;1258;44181;-87
2023/12/14 00:06:52;;;;;;;82.90;50.20;;;;;;;8.12;100.00;99026.34;178213;1258;58071;-88
2023/12/14 00:10:56;;;;;;;99.60;56.70;;;;;;;8.16;100.00;99030.91;178722;1258;46183;-89
2023/12/14 00:14:59;;;;;;;99.70;53.40;;;;;;;8.20;100.00;99037.23;178251;1259;45949;-86
2023/12/14 00:19:02;;;;;;;96.20;52.40;;;;;;;8.26;100.00;99043.80;178540;1257;46124;-89
2023/12/14 00:23:06;;;;;;;99.40;51.60;;;;;;;8.27;100.00;99050.59;178548;1257;45895;-87
2023/12/14 00:27:10;;;;;;;95.90;54.60;;;;;;;8.26;100.00;99051.38;178448;1258;61084;-88
2023/12/14 00:31:13;;;;;;;78.40;51.30;;;;;;;8.23;100.00;99056.74;178413;1257;46078;-86
2023/12/14 00:35:16;;;;;;;101.00;53.50;;;;;;;8.18;100.00;99067.09;178533;1257;46197;-88
2023/12/14 00:39:20;;;;;;;86.60;49.90;;;;;;;8.17;100.00;99067.06;177999;1257;45926;-89
2023/12/14 00:43:23;;;;;;;85.80;48.40;;;;;;;8.12;100.00;99073.66;177816;1257;46114;-87
2023/12/14 00:47:26;;;;;;;70.50;44.20;;;;;;;8.09;100.00;99075.69;178455;1257;59509;-87
2023/12/14 00:51:30;;;;;;;69.60;42.50;;;;;;;8.08;100.00;99081.38;178373;1258;45522;-87
2023/12/14 00:55:33;;;;;;;77.40;44.40;;;;;;;8.07;100.00;99086.45;178413;1257;46064;-87
2023/12/14 00:59:36;;;;;;;84.40;45.00;;;;;;;8.08;100.00;99094.32;178689;1257;46108;-86
2023/12/14 01:03:40;;;;;;;77.30;45.20;;;;;;;8.11;100.00;99104.23;178712;1256;46008;-86
2023/12/14 01:07:43;;;;;;;93.00;49.20;;;;;;;8.13;100.00;99103.90;178483;1256;58225;-88
2023/12/14 01:11:47;;;;;;;78.10;46.40;;;;;;;8.13;100.00;99105.82;178392;1257;45988;-87
2023/12/14 01:15:50;;;;;;;88.90;49.20;;;;;;;8.08;100.00;99105.98;178449;1258;46098;-88
2023/12/14 01:19:54;;;;;;;79.40;47.60;;;;;;;8.05;100.00;99107.15;178954;1257;44415;-87
2023/12/14 01:23:57;;;;;;;65.30;39.00;;;;;;;8.00;100.00;99109.86;178726;1256;44870;-87
2023/12/14 01:28:01;;;;;;;73.20;39.90;;;;;;;7.93;100.00;99112.41;178788;1257;59674;-87
2023/12/14 01:32:05;;;;;;;67.40;41.90;;;;;;;7.89;100.00;99111.37;178670;1257;46200;-87
2023/12/14 01:36:08;;;;;;;66.20;43.70;;;;;;;7.85;100.00;99114.52;178524;1257;45985;-87
2023/12/14 01:40:12;;;;;;;73.30;44.70;;;;;;;7.82;100.00;99121.85;178058;1257;46026;-88
2023/12/14 01:44:15;;;;;;;68.90;44.80;;;;;;;7.80;100.00;99126.09;178654;1257;44439;-88
2023/12/14 01:48:18;;;;;;;72.50;48.00;;;;;;;7.79;100.00;99123.88;178494;1256;59501;-88
2023/12/14 01:52:22;;;;;;;75.20;43.20;;;;;;;7.78;100.00;99129.42;178206;1256;46453;-87
2023/12/14 01:56:25;;;;;;;71.20;42.80;;;;;;;7.82;100.00;99130.34;178921;1256;45734;-88
2023/12/14 02:00:46;;;;;;;72.50;43.50;;;;;;;7.83;100.00;99132.83;178388;1257;46410;-88
2023/12/14 02:04:50;;;;;;;74.00;47.90;;;;;;;7.84;100.00;99131.70;178425;1257;44707;-87
2023/12/14 02:08:53;;;;;;;81.50;45.50;;;;;;;7.80;100.00;99138.95;178156;1256;58604;-87
2023/12/14 02:12:56;;;;;;;75.10;47.70;;;;;;;7.77;100.00;99147.40;178724;1256;46084;-89
2023/12/14 02:17:00;;;;;;;74.40;46.70;;;;;;;7.66;100.00;99147.27;178676;1257;46087;-89
2023/12/14 02:21:03;;;;;;;78.30;47.10;;;;;;;7.59;100.00;99144.34;178680;1257;45988;-89
2023/12/14 02:25:07;;;;;;;75.90;46.30;;;;;;;7.56;100.00;99149.50;178316;1258;46087;-87
2023/12/14 02:29:11;;;;;;;90.80;42.50;;;;;;;7.54;100.00;99146.16;178164;1258;58145;-88
2023/12/14 02:33:14;;;;;;;73.60;43.40;;;;;;;7.58;100.00;99156.95;179057;1257;46013;-89
2023/12/14 02:37:17;;;;;;;58.30;37.30;;;;;;;7.60;100.00;99160.66;179081;1257;46099;-88
2023/12/14 02:41:21;;;;;;;49.00;32.60;;;;;;;7.58;100.00;99162.92;178833;1260;46147;-88
2023/12/14 02:45:24;;;;;;;51.70;30.90;;;;;;;7.56;100.00;99172.64;178037;1256;44211;-88
2023/12/14 02:49:28;;;;;;;49.90;32.60;;;;;;;7.54;100.00;99174.25;178966;1257;59553;-84
2023/12/14 02:53:31;;;;;;;53.90;33.80;;;;;;;7.52;100.00;99183.72;178180;1256;46016;-87
2023/12/14 02:57:34;;;;;;;52.00;31.10;;;;;;;7.52;100.00;99182.15;178451;1256;46121;-87
2023/12/14 03:01:38;;;;;;;39.80;27.90;;;;;;;7.52;100.00;99188.86;178382;1256;45907;-86
2023/12/14 03:05:41;;;;;;;47.20;31.10;;;;;;;7.49;100.00;99195.67;179036;1256;45969;-86
2023/12/14 03:09:44;;;;;;;50.60;30.90;;;;;;;7.45;100.00;99195.95;178142;1256;58290;-86
2023/12/14 03:13:48;;;;;;;50.90;30.40;;;;;;;7.40;100.00;99200.98;178660;1260;46103;-88
2023/12/14 03:17:51;;;;;;;55.00;33.90;;;;;;;7.38;100.00;99203.86;178003;1256;46033;-86
2023/12/14 03:21:54;;;;;;;44.30;29.50;;;;;;;7.33;100.00;99205.82;179053;1256;44787;-86
2023/12/14 03:25:57;;;;;;;39.20;28.50;;;;;;;7.26;100.00;99212.91;179590;1256;46106;-82
2023/12/14 03:30:01;;;;;;;44.30;29.40;;;;;;;7.17;100.00;99218.85;180809;1255;56897;-83
2023/12/14 03:34:04;;;;;;;48.30;28.60;;;;;;;7.10;100.00;99221.31;179345;1256;46121;-86
2023/12/14 03:38:08;;;;;;;45.90;29.00;;;;;;;7.05;100.00;99226.02;178657;1259;46111;-88
2023/12/14 03:42:12;;;;;;;58.30;33.60;;;;;;;7.01;100.00;99238.52;178003;1259;46028;-88
2023/12/14 03:46:15;;;;;;;51.90;31.80;;;;;;;6.95;100.00;99244.61;178498;1257;46032;-88
2023/12/14 03:50:18;;;;;;;40.40;27.70;;;;;;;6.91;100.00;99255.89;178932;1257;59725;-86
2023/12/14 03:54:21;;;;;;;51.70;32.00;;;;;;;6.88;100.00;99264.38;178461;1257;46004;-83
2023/12/14 03:58:25;;;;;;;55.10;37.40;;;;;;;6.92;100.00;99266.91;177910;1256;46091;-85
2023/12/14 04:02:28;;;;;;;50.70;33.90;;;;;;;6.93;100.00;99269.31;177814;1257;46817;-84
2023/12/14 04:06:31;;;;;;;50.90;31.80;;;;;;;6.93;100.00;99275.83;178698;1258;45940;-84
2023/12/14 04:10:35;;;;;;;55.40;32.40;;;;;;;6.92;100.00;99279.59;178247;1257;58342;-85
2023/12/14 04:14:38;;;;;;;45.00;29.60;;;;;;;6.92;100.00;99285.79;178410;1257;46008;-85
2023/12/14 04:18:42;;;;;;;54.90;36.00;;;;;;;6.90;100.00;99287.52;178172;1257;46149;-85
2023/12/14 04:22:45;;;;;;;53.10;32.00;;;;;;;6.88;100.00;99290.16;178214;1258;45997;-85
2023/12/14 04:26:48;;;;;;;56.00;30.70;;;;;;;6.85;100.00;99296.89;179469;1257;45991;-85
2023/12/14 04:30:51;;;;;;;64.60;35.10;;;;;;;6.86;100.00;99303.17;179155;1256;58279;-84
2023/12/14 04:34:55;;;;;;;52.50;31.20;;;;;;;6.84;100.00;99302.83;179309;1257;46221;-86
2023/12/14 04:38:58;;;;;;;66.50;34.00;;;;;;;6.83;100.00;99303.23;178839;1257;46197;-84
2023/12/14 04:43:02;;;;;;;57.30;33.50;;;;;;;6.84;100.00;99308.59;179210;1256;44419;-85
2023/12/14 04:47:05;;;;;;;75.90;49.10;;;;;;;6.83;100.00;99312.53;177823;1259;46105;-85
2023/12/14 04:51:12;;;;;;;70.50;42.90;;;;;;;6.81;100.00;99314.86;177495;1257;59869;-85
2023/12/14 04:55:15;;;;;;;80.00;43.90;;;;;;;6.76;100.00;99324.04;177865;1257;46229;-83
2023/12/14 04:59:19;;;;;;;72.00;41.40;;;;;;;6.69;100.00;99329.02;178352;1256;46117;-85
2023/12/14 05:03:22;;;;;;;89.80;38.90;;;;;;;6.62;100.00;99334.53;178329;1257;46056;-86
2023/12/14 05:07:26;;;;;;;74.10;43.40;;;;;;;6.57;100.00;99336.52;177228;1256;46305;-86
2023/12/14 05:11:29;;;;;;;66.10;36.40;;;;;;;6.54;100.00;99343.42;177613;1256;58240;-86
2023/12/14 05:15:32;;;;;;;76.10;40.70;;;;;;;6.53;100.00;99350.75;177900;1256;45972;-86
2023/12/14 05:19:35;;;;;;;76.00;43.90;;;;;;;6.51;100.00;99360.94;178050;1258;46107;-85
2023/12/14 05:23:39;;;;;;;73.50;40.80;;;;;;;6.47;100.00;99371.13;177723;1256;46172;-86
2023/12/14 05:27:43;;;;;;;85.50;45.20;;;;;;;6.45;100.00;99378.69;177708;1256;46030;-86
2023/12/14 05:31:46;;;;;;;66.00;39.10;;;;;;;6.44;100.00;99382.63;177616;1260;58081;-83
2023/12/14 05:35:49;;;;;;;73.10;42.10;;;;;;;6.41;100.00;99386.19;177603;1261;46048;-85
2023/12/14 05:39:53;;;;;;;74.00;42.70;;;;;;;6.37;100.00;99398.81;177826;1261;46130;-86
2023/12/14 05:43:56;;;;;;;64.10;37.40;;;;;;;6.32;100.00;99401.83;177747;1259;45985;-83
2023/12/14 05:47:59;;;;;;;76.80;40.40;;;;;;;6.28;100.00;99403.08;177622;1258;46013;-85
2023/12/14 05:52:03;;;;;;;65.90;36.80;;;;;;;6.23;100.00;99407.30;178025;1256;57464;-85
2023/12/14 05:56:07;;;;;;;63.60;37.20;;;;;;;6.20;100.00;99416.52;178137;1256;46029;-86
2023/12/14 06:00:11;;;;;;;80.00;43.20;;;;;;;6.19;100.00;99423.31;177835;1256;46566;-86
2023/12/14 06:04:14;;;;;;;57.30;33.00;;;;;;;6.15;100.00;99428.17;178134;1259;45996;-85
2023/12/14 06:08:17;;;;;;;58.80;34.50;;;;;;;6.15;100.00;99434.36;177824;1256;46006;-85
2023/12/14 06:12:21;;;;;;;52.80;36.00;;;;;;;6.11;100.00;99436.01;177752;1261;58047;-83
2023/12/14 06:16:24;;;;;;;64.80;36.40;;;;;;;6.11;100.00;99443.77;178186;1259;46136;-84
2023/12/14 06:20:27;;;;;;;64.40;38.90;;;;;;;6.12;100.00;99452.31;178721;1257;46134;-83
2023/12/14 06:24:30;;;;;;;69.50;38.70;;;;;;;6.13;100.00;99454.90;178315;1256;46013;-84
2023/12/14 06:28:34;;;;;;;74.00;38.60;;;;;;;6.14;100.00;99460.13;178049;1261;46167;-84
2023/12/14 06:32:37;;;;;;;70.70;37.70;;;;;;;6.16;100.00;99466.85;178168;1256;58311;-85
2023/12/14 06:36:45;;;;;;;62.00;38.00;;;;;;;6.12;100.00;99473.79;178331;1258;46002;-85
2023/12/14 06:40:48;;;;;;;74.50;40.80;;;;;;;6.09;100.00;99480.52;177876;1260;46103;-85
2023/12/14 06:44:51;;;;;;;92.00;47.20;;;;;;;6.06;100.00;99490.28;178188;1257;46028;-85
2023/12/14 06:48:55;;;;;;;77.40;46.30;;;;;;;6.06;100.00;99496.23;177939;1259;46031;-84
2023/12/14 06:52:58;;;;;;;77.20;42.70;;;;;;;6.07;100.00;99505.31;177504;1259;56903;-84
2023/12/14 06:57:02;;;;;;;79.90;43.00;;;;;;;6.11;100.00;99510.00;178082;1259;46006;-85
2023/12/14 07:01:05;;;;;;;83.80;43.90;;;;;;;6.11;100.00;99515.77;178169;1261;46083;-84
2023/12/14 07:05:09;;;;;;;73.90;43.70;;;;;;;6.12;100.00;99522.21;178093;1259;46117;-85
2023/12/14 07:09:12;;;;;;;88.40;46.60;;;;;;;6.09;100.00;99524.52;177485;1259;46098;-88
2023/12/14 07:13:15;;;;;;;76.90;42.90;;;;;;;6.07;100.00;99531.38;177601;1256;58260;-85
2023/12/14 07:17:18;;;;;;;92.70;49.00;;;;;;;6.05;100.00;99538.55;178874;1257;46572;-82
2023/12/14 07:21:22;;;;;;;82.70;44.80;;;;;;;6.03;100.00;99544.69;180621;1256;44604;-82
2023/12/14 07:25:25;;;;;;;79.70;43.30;;;;;;;6.06;100.00;99553.14;179224;1257;45088;-84
2023/12/14 07:29:28;;;;;;;97.10;45.40;;;;;;;6.06;100.00;99561.59;177925;1258;46021;-85
2023/12/14 07:33:32;;;;;;;72.80;45.50;;;;;;;6.02;100.00;99568.70;178121;1258;58211;-85
2023/12/14 07:37:35;;;;;;;83.80;38.50;;;;;;;6.01;100.00;99577.05;177739;1260;46124;-85
2023/12/14 07:41:39;;;;;;;69.90;38.70;;;;;;;6.01;100.00;99580.75;177565;1259;46026;-84
2023/12/14 07:45:42;;;;;;;68.10;36.30;;;;;;;6.02;100.00;99586.35;177723;1257;45947;-86
2023/12/14 07:49:45;;;;;;;52.10;30.60;;;;;;;6.01;100.00;99591.52;178199;1256;46099;-83
2023/12/14 07:53:49;;;;;;;57.50;33.60;;;;;;;6.02;100.00;99596.03;177686;1257;59843;-85
2023/12/14 07:57:52;;;;;;;62.80;28.40;;;;;;;6.05;100.00;99595.83;177786;1257;45946;-85
2023/12/14 08:01:56;;;;;;;51.90;29.70;;;;;;;6.05;100.00;99603.36;178029;1257;46098;-85
2023/12/14 08:05:59;;;;;;;52.70;29.50;;;;;;;6.08;100.00;99610.87;178765;1258;46128;-85
2023/12/14 08:10:03;;;;;;;46.10;29.00;;;;;;;6.12;100.00;99615.83;177864;1256;46007;-86
2023/12/14 08:14:06;;;;;;;47.90;28.30;;;;;;;6.15;100.00;99620.07;177887;1259;58623;-85
2023/12/14 08:18:09;;;;;;;44.40;28.10;;;;;;;6.17;100.00;99624.17;178606;1259;45994;-84
2023/12/14 08:22:15;;;;;;;43.10;25.70;;;;;;;6.17;100.00;99635.39;178522;1258;46324;-86
2023/12/14 08:26:18;;;;;;;47.20;26.30;;;;;;;6.18;100.00;99642.90;178617;1257;46007;-86
2023/12/14 08:30:23;;;;;;;56.90;28.70;;;;;;;6.20;100.00;99655.48;178625;1261;46079;-84
2023/12/14 08:34:27;;;;;;;47.20;26.80;;;;;;;6.24;100.00;99664.48;177910;1259;59141;-85
2023/12/14 08:38:30;;;;;;;60.20;31.30;;;;;;;6.25;100.00;99673.38;178163;1258;45835;-86
2023/12/14 08:42:34;;;;;;;44.00;26.60;;;;;;;6.26;100.00;99681.79;178477;1261;46186;-86
2023/12/14 08:46:42;;;;;;;52.80;31.10;;;;;;;6.26;100.00;99686.00;177988;1259;46041;-85
2023/12/14 08:50:45;;;;;;;44.90;26.90;;;;;;;6.25;100.00;99697.16;177884;1257;46124;-85
2023/12/14 08:54:48;;;;;;;55.20;29.90;;;;;;;6.25;100.00;99702.42;178005;1259;59099;-85
2023/12/14 08:58:52;;;;;;;43.90;26.30;;;;;;;6.26;100.00;99712.38;178011;1257;341894;-84
2023/12/14 09:02:55;;;;;;;39.70;23.50;;;;;;;6.25;100.00;99720.95;177794;1256;46333;-86
2023/12/14 09:06:59;;;;;;;44.80;25.20;;;;;;;6.22;100.00;99725.38;178076;1257;45985;-86
2023/12/14 09:11:03;;;;;;;40.80;22.50;;;;;;;6.20;100.00;99725.92;177933;1257;46036;-86
2023/12/14 09:15:07;;;;;;;36.50;22.60;;;;;;;6.18;100.00;99727.95;178518;1260;59142;-86
2023/12/14 09:19:10;;;;;;;32.20;20.60;;;;;;;6.16;100.00;99732.84;178060;1256;46104;-85
2023/12/14 09:23:13;;;;;;;36.00;21.70;;;;;;;6.11;100.00;99748.52;178096;1260;46014;-87
2023/12/14 09:27:17;;;;;;;29.50;20.90;;;;;;;6.11;100.00;99749.35;177535;1256;45993;-86
2023/12/14 09:31:20;;;;;;;32.90;23.00;;;;;;;6.16;100.00;99753.27;177819;1260;46094;-84
2023/12/14 09:35:24;;;;;;;26.30;20.10;;;;;;;6.22;100.00;99758.48;177711;1256;59504;-86
2023/12/14 09:39:30;;;;;;;26.20;18.90;;;;;;;6.27;100.00;99764.44;177554;1259;46119;-85
2023/12/14 09:43:33;;;;;;;35.20;19.90;;;;;;;6.31;100.00;99763.33;177744;1256;46153;-84
2023/12/14 09:47:38;;;;;;;31.30;18.90;;;;;;;6.34;100.00;99771.55;177660;1258;46427;-85
2023/12/14 09:51:42;;;;;;;27.70;18.90;;;;;;;6.34;100.00;99774.88;177795;1261;46214;-85
2023/12/14 09:55:45;;;;;;;26.50;17.30;;;;;;;6.29;100.00;99782.41;177721;1260;58295;-84
2023/12/14 09:59:55;;;;;;;26.90;17.00;;;;;;;6.26;100.00;99788.14;177311;1258;45899;-85
2023/12/14 10:04:10;;;;;;;33.60;20.70;;;;;;;6.22;100.00;99789.46;177970;1260;46237;-85
2023/12/14 10:08:13;;;;;;;24.60;18.40;;;;;;;6.23;100.00;99789.06;177945;1259;46208;-86
2023/12/14 10:12:17;;;;;;;21.00;16.90;;;;;;;6.26;100.00;99795.89;177664;1259;46151;-86
2023/12/14 10:16:40;;;;;;;31.40;21.20;;;;;;;6.28;100.00;99797.81;177994;1256;59376;-85
2023/12/14 10:20:45;;;;;;;34.40;23.50;;;;;;;6.30;100.00;99801.41;177709;1259;47354;-85
2023/12/14 10:24:48;;;;;;;43.70;25.70;;;;;;;6.29;100.00;99809.79;177918;1259;45952;-82
2023/12/14 10:28:54;;;;;;;27.30;20.30;;;;;;;6.24;100.00;99817.30;177958;1257;45919;-80
2023/12/14 10:32:58;;;;;;;26.40;15.70;;;;;;;6.16;100.00;99817.38;177830;1257;45990;-80
2023/12/14 10:37:04;;;;;;;29.10;18.20;;;;;;;6.07;100.00;99820.27;177997;1261;57779;-79
2023/12/14 10:41:09;;;;;;;28.00;18.30;;;;;;;6.02;100.00;99821.66;177992;1258;46002;-80
2023/12/14 10:45:16;;;;;;;29.10;17.50;;;;;;;5.97;100.00;99824.85;177547;1260;46076;-80
2023/12/14 10:49:28;;;;;;;34.40;20.60;;;;;;;5.94;100.00;99827.97;177358;1258;46218;-81
2023/12/14 10:53:33;;;;;;;34.80;21.20;;;;;;;5.93;100.00;99835.29;177907;1257;46232;-81
2023/12/14 10:57:36;;;;;;;33.50;21.80;;;;;;;5.92;100.00;99838.20;177409;1261;59278;-81
2023/12/14 11:01:41;;;;;;;37.70;24.30;;;;;;;5.85;100.00;99837.59;178212;1258;45980;-81
2023/12/14 11:05:45;;;;;;;35.70;21.50;;;;;;;5.81;100.00;99845.48;177849;1257;46120;-81
2023/12/14 11:09:48;;;;;;;35.20;23.60;;;;;;;5.76;100.00;99850.73;180654;1260;43654;-81
2023/12/14 11:13:53;;;;;;;31.80;20.20;;;;;;;5.76;100.00;99857.61;179712;1259;45997;-81
2023/12/14 11:18:11;;;;;;;30.20;21.20;;;;;;;5.75;100.00;99857.82;177652;1257;59314;-81
2023/12/14 11:22:24;;;;;;;32.40;22.10;;;;;;;5.75;100.00;99870.15;177935;1257;46015;-82
2023/12/14 11:26:28;;;;;;;31.30;21.80;;;;;;;5.71;100.00;99872.85;179128;1257;44038;-82
2023/12/14 11:30:31;;;;;;;30.00;20.50;;;;;;;5.72;100.00;99876.51;178979;1257;45977;-79
2023/12/14 11:34:55;;;;;;;27.20;18.30;;;;;;;5.67;100.00;99876.14;177610;1258;46567;-81
2023/12/14 11:38:58;;;;;;;23.90;15.90;;;;;;;5.57;100.00;99879.21;178527;1260;57982;-81
2023/12/14 11:43:08;;;;;;;26.00;15.70;;;;;;;5.48;100.00;99889.01;177609;1257;46201;-81
2023/12/14 11:47:11;;;;;;;23.30;16.80;;;;;;;5.46;100.00;99892.08;178111;1260;46096;-81
2023/12/14 11:51:15;;;;;;;27.30;17.10;;;;;;;5.42;100.00;99889.73;177920;1258;46039;-81
2023/12/14 11:55:21;;;;;;;27.20;21.00;;;;;;;5.47;100.00;99897.83;178120;1261;45860;-81
2023/12/14 11:59:26;;;;;;;22.90;16.30;;;;;;;5.47;100.00;99899.64;178157;1262;58019;-82
2023/12/14 12:03:33;;;;;;;26.10;16.70;;;;;;;5.45;100.00;99904.48;178252;1257;46201;-81
2023/12/14 12:07:36;;;;;;;24.00;17.40;;;;;;;5.44;100.00;99911.20;178419;1258;44545;-82
2023/12/14 12:11:40;;;;;;;30.60;17.60;;;;;;;5.48;100.00;99916.42;178465;1257;46026;-82
2023/12/14 12:15:43;;;;;;;23.30;17.60;;;;;;;5.49;100.00;99917.93;178287;1261;46057;-82
2023/12/14 12:19:46;;;;;;;25.60;16.90;;;;;;;5.50;100.00;99921.04;178682;1258;57936;-81
2023/12/14 12:23:50;;;;;;;21.20;13.90;;;;;;;5.47;100.00;99923.17;177494;1260;45913;-81
2023/12/14 12:27:55;;;;;;;22.60;16.20;;;;;;;5.47;100.00;99929.70;178024;1261;46146;-81
2023/12/14 12:31:58;;;;;;;20.20;17.20;;;;;;;5.47;100.00;99935.66;178279;1257;46017;-81
2023/12/14 12:36:01;;;;;;;22.10;17.30;;;;;;;5.47;100.00;99943.02;178075;1262;45975;-80
2023/12/14 12:40:07;;;;;;;19.30;13.80;;;;;;;5.47;100.00;99947.59;177799;1257;59855;-80
2023/12/14 12:44:10;;;;;;;24.00;14.30;;;;;;;5.46;100.00;99954.88;177871;1257;44622;-80
2023/12/14 12:48:14;;;;;;;17.10;11.80;;;;;;;5.43;100.00;99961.09;177707;1261;46308;-80
2023/12/14 12:52:17;;;;;;;16.10;11.50;;;;;;;5.37;100.00;99973.92;177614;1260;46290;-80
2023/12/14 12:56:21;;;;;;;23.50;13.90;;;;;;;5.32;100.00;99985.52;178088;1258;45884;-80
2023/12/14 13:00:25;;;;;;;18.80;12.30;;;;;;;5.29;100.00;99989.04;178110;1257;59543;-80
2023/12/14 13:04:30;;;;;;;20.40;14.10;;;;;;;5.28;100.00;99992.65;177111;1260;46049;-79
2023/12/14 13:08:33;;;;;;;19.20;17.00;;;;;;;5.31;100.00;99992.30;177679;1258;46109;-80
2023/12/14 13:12:36;;;;;;;24.50;16.50;;;;;;;5.32;100.00;99995.56;177423;1261;46881;-80
2023/12/14 13:16:40;;;;;;;23.90;19.50;;;;;;;5.33;100.00;99996.54;177516;1258;46118;-80
2023/12/14 13:20:44;;;;;;;19.70;13.40;;;;;;;5.34;100.00;99997.05;177234;1257;60195;-80
2023/12/14 13:24:47;;;;;;;24.10;17.80;;;;;;;5.30;100.00;100001.86;177052;1257;46118;-80
2023/12/14 13:28:54;;;;;;;21.20;13.60;;;;;;;5.23;100.00;100011.05;177251;1256;46083;-80
2023/12/14 13:32:57;;;;;;;22.20;13.10;;;;;;;5.14;100.00;100018.65;177485;1257;46089;-80
2023/12/14 13:37:01;;;;;;;22.00;16.00;;;;;;;5.09;100.00;100027.08;177895;1257;46200;-79
2023/12/14 13:41:05;;;;;;;24.50;17.40;;;;;;;5.06;100.00;100032.16;177622;1257;57974;-80
2023/12/14 13:45:09;;;;;;;23.90;17.60;;;;;;;5.04;100.00;100038.79;176685;1258;46683;-80
2023/12/14 13:49:12;;;;;;;26.00;15.70;;;;;;;5.01;100.00;100042.13;177826;1257;46010;-79
2023/12/14 13:53:15;;;;;;;25.30;15.50;;;;;;;4.98;100.00;100045.30;178508;1257;46143;-79
2023/12/14 13:57:25;;;;;;;18.90;13.30;;;;;;;4.91;100.00;100052.06;179623;1258;44839;-79
2023/12/14 14:01:28;;;;;;;19.20;11.90;;;;;;;4.83;100.00;100058.16;179253;1257;59347;-79
2023/12/14 14:05:33;;;;;;;22.90;15.50;;;;;;;4.78;100.00;100064.83;178727;1257;45999;-79
2023/12/14 14:09:36;;;;;;;18.40;11.60;;;;;;;4.80;100.00;100075.77;179268;1257;46106;-79
2023/12/14 14:13:39;;;;;;;14.90;8.90;;;;;;;4.70;100.00;100089.02;178560;1257;44318;-79
2023/12/14 14:17:43;;;;;;;15.10;10.90;;;;;;;4.62;100.00;100105.46;179368;1257;44161;-80
2023/12/14 14:21:46;;;;;;;15.40;11.30;;;;;;;4.54;100.00;100114.02;177995;1257;58908;-79
2023/12/14 14:25:53;;;;;;;12.60;8.20;;;;;;;4.47;100.00;100121.98;178462;1257;46161;-80
2023/12/14 14:29:57;;;;;;;14.80;12.70;;;;;;;4.44;100.00;100132.52;180396;1257;43827;-81
2023/12/14 14:34:00;;;;;;;15.50;10.20;;;;;;;4.47;100.00;100134.45;178931;1258;46137;-80
2023/12/14 14:38:04;;;;;;;10.30;8.60;;;;;;;4.46;100.00;100152.76;178838;1257;45981;-80
2023/12/14 14:42:07;;;;;;;13.60;8.60;;;;;;;4.41;100.00;100162.90;178033;1257;59540;-79
2023/12/14 14:46:10;;;;;;;15.50;10.10;;;;;;;4.35;100.00;100167.27;179641;1257;46028;-79
2023/12/14 14:50:13;;;;;;;11.00;8.20;;;;;;;4.28;100.00;100172.78;179671;1257;46218;-79
2023/12/14 14:54:17;;;;;;;13.30;9.60;;;;;;;4.21;100.00;100184.42;178757;1258;46152;-79
2023/12/14 14:58:20;;;;;;;13.20;8.30;;;;;;;4.20;100.00;100185.71;180177;1260;43728;-79
2023/12/14 15:02:23;;;;;;;8.80;7.70;;;;;;;4.20;100.00;100195.72;178976;1257;59610;-78
2023/12/14 15:06:26;;;;;;;12.90;10.80;;;;;;;4.16;100.00;100205.75;179519;1256;46007;-79
2023/12/14 15:10:30;;;;;;;14.40;10.50;;;;;;;4.14;100.00;100211.98;178350;1257;46088;-79
2023/12/14 15:14:33;;;;;;;16.70;11.70;;;;;;;4.04;100.00;100219.92;177828;1256;45988;-79
2023/12/14 15:18:41;;;;;;;14.00;10.50;;;;;;;4.01;100.00;100227.59;178868;1257;48273;-79
2023/12/14 15:22:45;;;;;;;14.20;11.20;;;;;;;3.99;100.00;100236.33;178459;1257;58367;-79
2023/12/14 15:26:49;;;;;;;14.80;11.30;;;;;;;3.97;100.00;100245.39;178433;1257;46135;-79
2023/12/14 15:30:52;;;;;;;20.90;13.50;;;;;;;3.95;100.00;100252.33;178297;1257;46220;-79
2023/12/14 15:34:55;;;;;;;19.30;13.90;;;;;;;3.94;100.00;100264.49;179403;1256;46068;-79
2023/12/14 15:38:59;;;;;;;26.70;15.80;;;;;;;3.95;100.00;100270.62;178212;1258;44509;-80
2023/12/14 15:43:05;;;;;;;24.30;16.50;;;;;;;3.89;100.00;100274.07;179408;1257;59559;-80
2023/12/14 15:47:08;;;;;;;19.60;12.50;;;;;;;3.90;100.00;100284.38;178268;1257;46297;-80
2023/12/14 15:51:12;;;;;;;23.90;14.70;;;;;;;3.86;100.00;100295.97;179941;1256;46010;-80
2023/12/14 15:55:15;;;;;;;17.60;13.60;;;;;;;3.86;100.00;100305.48;178155;1256;46121;-80
2023/12/14 15:59:18;;;;;;;22.10;14.30;;;;;;;3.84;100.00;100310.29;177880;1257;46196;-80
2023/12/14 16:03:21;;;;;;;18.00;13.80;;;;;;;3.86;100.00;100310.70;177409;1256;60733;-84
2023/12/14 16:07:24;;;;;;;21.60;12.90;;;;;;;3.91;100.00;100317.29;177915;1256;45919;-80
2023/12/14 16:11:27;;;;;;;23.30;14.10;;;;;;;3.93;100.00;100323.34;177949;1256;46028;-80
2023/12/14 16:15:30;;;;;;;21.20;14.10;;;;;;;3.85;100.00;100331.25;177823;1257;46058;-80
2023/12/14 16:19:33;;;;;;;22.90;14.80;;;;;;;3.81;100.00;100335.52;177122;1257;45994;-80
2023/12/14 16:23:38;;;;;;;21.30;15.80;;;;;;;3.81;100.00;100342.17;177245;1258;58207;-80
2023/12/14 16:27:41;;;;;;;20.90;14.20;;;;;;;3.80;100.00;100349.81;177881;1256;46517;-80
2023/12/14 16:31:44;;;;;;;20.60;13.10;;;;;;;3.70;100.00;100354.70;177393;1256;46157;-80
2023/12/14 16:35:48;;;;;;;28.00;17.60;;;;;;;3.72;100.00;100366.73;179962;1257;46118;-80
2023/12/14 16:39:51;;;;;;;22.80;16.50;;;;;;;3.69;100.00;100380.91;178058;1257;46041;-79
2023/12/14 16:43:54;;;;;;;32.20;21.20;;;;;;;3.71;100.00;100387.81;178041;1256;59605;-80
2023/12/14 16:47:57;;;;;;;32.00;19.00;;;;;;;3.74;100.00;100396.77;177768;1257;46096;-80
2023/12/14 16:52:01;;;;;;;33.80;22.60;;;;;;;3.69;100.00;100400.20;177927;1256;46095;-80
2023/12/14 16:56:06;;;;;;;38.80;23.10;;;;;;;3.71;100.00;100408.31;179554;1256;44264;-79
2023/12/14 17:00:10;;;;;;;39.20;23.00;;;;;;;3.67;100.00;100412.91;178793;1256;46042;-80
2023/12/14 17:04:13;;;;;;;40.30;25.30;;;;;;;3.56;100.00;100415.74;178338;1257;59461;-80
2023/12/14 17:08:16;;;;;;;44.90;25.80;;;;;;;3.59;100.00;100418.95;177730;1256;46124;-80
2023/12/14 17:12:19;;;;;;;45.30;28.50;;;;;;;3.56;100.00;100432.20;178365;1256;46463;-81
2023/12/14 17:16:22;;;;;;;46.60;28.00;;;;;;;3.57;100.00;100433.05;178290;1257;46147;-80
2023/12/14 17:20:26;;;;;;;46.00;32.00;;;;;;;3.62;100.00;100435.10;178549;1256;46121;-81
2023/12/14 17:24:29;;;;;;;49.10;28.70;;;;;;;3.58;100.00;100436.14;177799;1257;59340;-80
2023/12/14 17:28:32;;;;;;;57.70;33.00;;;;;;;3.54;100.00;100440.19;177815;1260;45991;-80
2023/12/14 17:32:35;;;;;;;55.60;31.80;;;;;;;3.58;100.00;100454.58;177226;1260;46119;-80
2023/12/14 17:36:41;;;;;;;53.00;34.90;;;;;;;3.62;100.00;100457.93;178682;1257;46026;-80
2023/12/14 17:40:44;;;;;;;65.60;38.80;;;;;;;3.68;100.00;100461.09;177188;1258;44998;-80
2023/12/14 17:44:48;;;;;;;53.80;35.00;;;;;;;3.75;100.00;100473.23;177048;1257;58056;-80
2023/12/14 17:48:51;;;;;;;56.80;36.20;;;;;;;3.78;100.00;100480.06;176941;1257;46085;-81
2023/12/14 17:52:58;;;;;;;53.40;37.40;;;;;;;3.81;100.00;100479.91;178106;1257;46383;-81
2023/12/14 17:57:01;;;;;;;50.10;33.80;;;;;;;3.91;100.00;100481.88;176975;1257;46241;-80
2023/12/14 18:01:05;;;;;;;55.30;36.90;;;;;;;3.93;100.00;100488.30;178099;1256;46048;-81
2023/12/14 18:05:08;;;;;;;60.80;37.70;;;;;;;3.93;100.00;100495.09;177361;1258;59666;-81
2023/12/14 18:09:12;;;;;;;60.80;33.60;;;;;;;3.92;100.00;100503.24;177955;1256;46053;-81
2023/12/14 18:13:17;;;;;;;61.20;37.60;;;;;;;3.90;100.00;100514.92;176825;1258;45984;-80
2023/12/14 18:17:20;;;;;;;61.60;39.40;;;;;;;3.94;100.00;100525.40;177461;1256;46163;-81
2023/12/14 18:21:24;;;;;;;54.30;37.10;;;;;;;4.02;100.00;100532.38;176955;1258;45991;-81
2023/12/14 18:25:27;;;;;;;50.70;36.60;;;;;;;4.08;100.00;100538.56;177543;1256;58264;-81